sensor_id;sensor_type;location;lat;lon;timestamp;P1;durP1;ratioP1;P2;durP2;ratioP2
66567;SDS011;53422;49.296;6.900;2024-03-17T00:01:20;34.22;;;16.70;;
66567;SDS011;53422;49.296;6.900;2024-03-17T00:03:45;33.67;;;17.40;;
66567;SDS011;53422;49.296;6.900;2024-03-17T00:06:11;33.15;;;18.23;;
66567;SDS011;53422;49.296;6.900;2024-03-17T00:08:37;31.65;;;17.30;;
66567;SDS011;53422;49.296;6.900;2024-03-17T00:11:03;31.15;;;15.05;;
66567;SDS011;53422;49.296;6.900;2024-03-17T00:13:28;25.33;;;12.30;;
66567;SDS011;53422;49.296;6.900;2024-03-17T00:15:54;20.20;;;11.18;;
66567;SDS011;53422;49.296;6.900;2024-03-17T00:18:20;21.40;;;10.18;;
66567;SDS011;53422;49.296;6.900;2024-03-17T00:20:45;20.90;;;9.82;;
66567;SDS011;53422;49.296;6.900;2024-03-17T00:23:11;23.80;;;11.05;;
66567;SDS011;53422;49.296;6.900;2024-03-17T00:25:37;26.35;;;12.18;;
66567;SDS011;53422;49.296;6.900;2024-03-17T00:28:03;23.60;;;12.57;;
66567;SDS011;53422;49.296;6.900;2024-03-17T00:30:29;25.60;;;13.05;;
66567;SDS011;53422;49.296;6.900;2024-03-17T00:32:56;24.83;;;13.88;;
66567;SDS011;53422;49.296;6.900;2024-03-17T00:35:23;25.90;;;13.68;;
66567;SDS011;53422;49.296;6.900;2024-03-17T00:37:50;24.25;;;13.02;;
66567;SDS011;53422;49.296;6.900;2024-03-17T00:40:16;23.13;;;12.18;;
66567;SDS011;53422;49.296;6.900;2024-03-17T00:42:45;25.42;;;12.15;;
66567;SDS011;53422;49.296;6.900;2024-03-17T00:45:11;23.10;;;12.05;;
66567;SDS011;53422;49.296;6.900;2024-03-17T00:47:37;22.17;;;10.90;;
66567;SDS011;53422;49.296;6.900;2024-03-17T00:50:04;30.98;;;14.43;;
66567;SDS011;53422;49.296;6.900;2024-03-17T00:52:32;27.70;;;14.80;;
66567;SDS011;53422;49.296;6.900;2024-03-17T00:54:58;23.17;;;12.43;;
66567;SDS011;53422;49.296;6.900;2024-03-17T00:57:23;15.18;;;8.50;;
66567;SDS011;53422;49.296;6.900;2024-03-17T00:59:49;14.75;;;7.18;;
66567;SDS011;53422;49.296;6.900;2024-03-17T01:02:15;9.18;;;5.72;;
66567;SDS011;53422;49.296;6.900;2024-03-17T01:04:44;13.13;;;6.68;;
66567;SDS011;53422;49.296;6.900;2024-03-17T01:07:22;12.48;;;6.47;;
66567;SDS011;53422;49.296;6.900;2024-03-17T01:09:48;12.95;;;5.95;;
66567;SDS011;53422;49.296;6.900;2024-03-17T01:12:14;15.38;;;7.93;;
66567;SDS011;53422;49.296;6.900;2024-03-17T01:14:39;20.38;;;10.93;;
66567;SDS011;53422;49.296;6.900;2024-03-17T01:17:05;23.05;;;10.88;;
66567;SDS011;53422;49.296;6.900;2024-03-17T01:19:31;18.67;;;9.50;;
66567;SDS011;53422;49.296;6.900;2024-03-17T01:21:57;12.38;;;7.10;;
66567;SDS011;53422;49.296;6.900;2024-03-17T01:24:25;14.85;;;8.63;;
66567;SDS011;53422;49.296;6.900;2024-03-17T01:26:54;15.73;;;8.32;;
66567;SDS011;53422;49.296;6.900;2024-03-17T01:29:20;14.07;;;6.90;;
66567;SDS011;53422;49.296;6.900;2024-03-17T01:31:46;13.43;;;6.75;;
66567;SDS011;53422;49.296;6.900;2024-03-17T01:34:12;15.20;;;7.05;;
66567;SDS011;53422;49.296;6.900;2024-03-17T01:36:37;15.30;;;7.13;;
66567;SDS011;53422;49.296;6.900;2024-03-17T01:39:03;23.67;;;8.18;;
66567;SDS011;53422;49.296;6.900;2024-03-17T01:41:28;14.90;;;7.45;;
66567;SDS011;53422;49.296;6.900;2024-03-17T01:43:54;17.10;;;7.47;;
66567;SDS011;53422;49.296;6.900;2024-03-17T01:46:20;13.82;;;7.10;;
66567;SDS011;53422;49.296;6.900;2024-03-17T01:48:46;14.65;;;7.30;;
66567;SDS011;53422;49.296;6.900;2024-03-17T01:51:13;14.18;;;6.65;;
66567;SDS011;53422;49.296;6.900;2024-03-17T01:56:07;15.15;;;7.00;;
66567;SDS011;53422;49.296;6.900;2024-03-17T01:58:35;12.98;;;6.80;;
66567;SDS011;53422;49.296;6.900;2024-03-17T02:01:01;14.73;;;6.60;;
66567;SDS011;53422;49.296;6.900;2024-03-17T02:03:29;13.60;;;6.63;;
66567;SDS011;53422;49.296;6.900;2024-03-17T02:05:55;16.50;;;7.53;;
66567;SDS011;53422;49.296;6.900;2024-03-17T02:08:21;13.10;;;7.15;;
66567;SDS011;53422;49.296;6.900;2024-03-17T02:10:52;15.23;;;7.07;;
66567;SDS011;53422;49.296;6.900;2024-03-17T02:13:21;12.93;;;6.70;;
66567;SDS011;53422;49.296;6.900;2024-03-17T02:15:47;18.52;;;8.32;;
66567;SDS011;53422;49.296;6.900;2024-03-17T02:18:13;14.00;;;7.15;;
66567;SDS011;53422;49.296;6.900;2024-03-17T02:20:39;16.15;;;8.00;;
66567;SDS011;53422;49.296;6.900;2024-03-17T02:23:20;13.73;;;6.10;;
66567;SDS011;53422;49.296;6.900;2024-03-17T02:25:46;12.63;;;6.28;;
66567;SDS011;53422;49.296;6.900;2024-03-17T02:28:12;12.27;;;5.60;;
66567;SDS011;53422;49.296;6.900;2024-03-17T02:30:38;12.13;;;6.20;;
66567;SDS011;53422;49.296;6.900;2024-03-17T02:33:04;11.20;;;5.03;;
66567;SDS011;53422;49.296;6.900;2024-03-17T02:35:30;11.52;;;5.68;;
66567;SDS011;53422;49.296;6.900;2024-03-17T02:37:56;12.05;;;6.38;;
66567;SDS011;53422;49.296;6.900;2024-03-17T02:40:23;12.98;;;5.22;;
66567;SDS011;53422;49.296;6.900;2024-03-17T02:43:04;8.93;;;4.78;;
66567;SDS011;53422;49.296;6.900;2024-03-17T02:45:45;9.38;;;4.72;;
66567;SDS011;53422;49.296;6.900;2024-03-17T02:48:12;12.02;;;5.15;;
66567;SDS011;53422;49.296;6.900;2024-03-17T02:50:38;10.75;;;5.90;;
66567;SDS011;53422;49.296;6.900;2024-03-17T02:53:03;11.38;;;6.18;;
66567;SDS011;53422;49.296;6.900;2024-03-17T02:55:29;10.35;;;4.82;;
66567;SDS011;53422;49.296;6.900;2024-03-17T02:57:55;8.57;;;5.25;;
66567;SDS011;53422;49.296;6.900;2024-03-17T03:00:21;12.52;;;5.55;;
66567;SDS011;53422;49.296;6.900;2024-03-17T03:02:47;12.23;;;4.93;;
66567;SDS011;53422;49.296;6.900;2024-03-17T03:05:12;12.57;;;5.18;;
66567;SDS011;53422;49.296;6.900;2024-03-17T03:07:38;10.65;;;5.43;;
66567;SDS011;53422;49.296;6.900;2024-03-17T03:10:04;13.43;;;5.88;;
66567;SDS011;53422;49.296;6.900;2024-03-17T03:12:31;11.48;;;5.97;;
66567;SDS011;53422;49.296;6.900;2024-03-17T03:14:57;10.73;;;5.10;;
66567;SDS011;53422;49.296;6.900;2024-03-17T03:17:23;10.68;;;5.18;;
66567;SDS011;53422;49.296;6.900;2024-03-17T03:19:49;8.48;;;4.50;;
66567;SDS011;53422;49.296;6.900;2024-03-17T03:22:15;10.05;;;4.43;;
66567;SDS011;53422;49.296;6.900;2024-03-17T03:24:40;10.38;;;5.32;;
66567;SDS011;53422;49.296;6.900;2024-03-17T03:27:07;8.45;;;4.78;;
66567;SDS011;53422;49.296;6.900;2024-03-17T03:29:33;10.45;;;4.80;;
66567;SDS011;53422;49.296;6.900;2024-03-17T03:31:59;10.77;;;4.80;;
66567;SDS011;53422;49.296;6.900;2024-03-17T03:34:24;9.60;;;3.95;;
66567;SDS011;53422;49.296;6.900;2024-03-17T03:36:50;7.82;;;4.75;;
66567;SDS011;53422;49.296;6.900;2024-03-17T03:39:16;10.32;;;5.00;;
66567;SDS011;53422;49.296;6.900;2024-03-17T03:41:45;10.07;;;4.63;;
66567;SDS011;53422;49.296;6.900;2024-03-17T03:44:11;9.65;;;4.15;;
66567;SDS011;53422;49.296;6.900;2024-03-17T03:46:37;11.90;;;4.82;;
66567;SDS011;53422;49.296;6.900;2024-03-17T03:49:03;8.77;;;4.57;;
66567;SDS011;53422;49.296;6.900;2024-03-17T03:51:29;9.43;;;4.47;;
66567;SDS011;53422;49.296;6.900;2024-03-17T03:53:54;9.52;;;4.25;;
66567;SDS011;53422;49.296;6.900;2024-03-17T03:56:20;9.63;;;4.60;;
66567;SDS011;53422;49.296;6.900;2024-03-17T03:58:46;9.05;;;4.47;;
66567;SDS011;53422;49.296;6.900;2024-03-17T04:01:11;8.07;;;3.95;;
66567;SDS011;53422;49.296;6.900;2024-03-17T04:03:37;9.77;;;4.45;;
66567;SDS011;53422;49.296;6.900;2024-03-17T04:06:03;7.70;;;4.18;;
66567;SDS011;53422;49.296;6.900;2024-03-17T04:08:34;7.95;;;4.10;;
66567;SDS011;53422;49.296;6.900;2024-03-17T04:11:00;8.20;;;4.47;;
66567;SDS011;53422;49.296;6.900;2024-03-17T04:13:27;8.48;;;3.83;;
66567;SDS011;53422;49.296;6.900;2024-03-17T04:15:54;9.48;;;4.03;;
66567;SDS011;53422;49.296;6.900;2024-03-17T04:18:24;8.05;;;3.72;;
66567;SDS011;53422;49.296;6.900;2024-03-17T04:20:54;10.63;;;4.35;;
66567;SDS011;53422;49.296;6.900;2024-03-17T04:23:21;8.25;;;4.60;;
66567;SDS011;53422;49.296;6.900;2024-03-17T04:25:47;8.45;;;4.28;;
66567;SDS011;53422;49.296;6.900;2024-03-17T04:28:13;9.65;;;4.43;;
66567;SDS011;53422;49.296;6.900;2024-03-17T04:30:40;9.25;;;4.18;;
66567;SDS011;53422;49.296;6.900;2024-03-17T04:33:07;8.55;;;3.85;;
66567;SDS011;53422;49.296;6.900;2024-03-17T04:35:37;8.35;;;4.00;;
66567;SDS011;53422;49.296;6.900;2024-03-17T04:38:03;8.57;;;4.07;;
66567;SDS011;53422;49.296;6.900;2024-03-17T04:40:30;8.30;;;3.78;;
66567;SDS011;53422;49.296;6.900;2024-03-17T04:42:56;13.43;;;4.72;;
66567;SDS011;53422;49.296;6.900;2024-03-17T04:45:22;7.88;;;4.10;;
66567;SDS011;53422;49.296;6.900;2024-03-17T04:47:48;8.30;;;4.38;;
66567;SDS011;53422;49.296;6.900;2024-03-17T04:50:14;8.13;;;4.45;;
66567;SDS011;53422;49.296;6.900;2024-03-17T04:52:39;10.93;;;4.95;;
66567;SDS011;53422;49.296;6.900;2024-03-17T04:55:05;8.95;;;4.40;;
66567;SDS011;53422;49.296;6.900;2024-03-17T04:57:31;7.68;;;3.97;;
66567;SDS011;53422;49.296;6.900;2024-03-17T04:59:57;8.02;;;3.95;;
66567;SDS011;53422;49.296;6.900;2024-03-17T05:02:22;10.52;;;4.22;;
66567;SDS011;53422;49.296;6.900;2024-03-17T05:04:51;7.60;;;3.83;;
66567;SDS011;53422;49.296;6.900;2024-03-17T05:07:17;8.10;;;4.35;;
66567;SDS011;53422;49.296;6.900;2024-03-17T05:09:42;7.85;;;3.58;;
66567;SDS011;53422;49.296;6.900;2024-03-17T05:12:11;5.90;;;3.42;;
66567;SDS011;53422;49.296;6.900;2024-03-17T05:14:37;7.50;;;3.83;;
66567;SDS011;53422;49.296;6.900;2024-03-17T05:17:03;6.93;;;3.58;;
66567;SDS011;53422;49.296;6.900;2024-03-17T05:19:28;7.40;;;3.75;;
66567;SDS011;53422;49.296;6.900;2024-03-17T05:21:54;8.45;;;3.97;;
66567;SDS011;53422;49.296;6.900;2024-03-17T05:24:20;11.55;;;3.67;;
66567;SDS011;53422;49.296;6.900;2024-03-17T05:26:45;9.43;;;4.15;;
66567;SDS011;53422;49.296;6.900;2024-03-17T05:29:11;7.88;;;4.03;;
66567;SDS011;53422;49.296;6.900;2024-03-17T05:31:37;8.23;;;3.78;;
66567;SDS011;53422;49.296;6.900;2024-03-17T05:34:07;6.88;;;3.58;;
66567;SDS011;53422;49.296;6.900;2024-03-17T05:36:34;7.97;;;3.58;;
66567;SDS011;53422;49.296;6.900;2024-03-17T05:39:00;6.43;;;3.60;;
66567;SDS011;53422;49.296;6.900;2024-03-17T05:41:25;9.60;;;3.65;;
66567;SDS011;53422;49.296;6.900;2024-03-17T05:43:53;7.82;;;3.92;;
66567;SDS011;53422;49.296;6.900;2024-03-17T05:46:19;6.43;;;3.50;;
66567;SDS011;53422;49.296;6.900;2024-03-17T05:48:45;6.93;;;3.40;;
66567;SDS011;53422;49.296;6.900;2024-03-17T05:51:11;7.38;;;3.25;;
66567;SDS011;53422;49.296;6.900;2024-03-17T05:53:40;6.53;;;3.40;;
66567;SDS011;53422;49.296;6.900;2024-03-17T05:56:06;7.03;;;3.17;;
66567;SDS011;53422;49.296;6.900;2024-03-17T05:58:34;8.40;;;3.40;;
66567;SDS011;53422;49.296;6.900;2024-03-17T06:01:01;7.93;;;3.90;;
66567;SDS011;53422;49.296;6.900;2024-03-17T06:03:27;7.93;;;3.55;;
66567;SDS011;53422;49.296;6.900;2024-03-17T06:05:53;8.63;;;3.28;;
66567;SDS011;53422;49.296;6.900;2024-03-17T06:08:19;8.18;;;3.67;;
66567;SDS011;53422;49.296;6.900;2024-03-17T06:10:45;6.10;;;3.20;;
66567;SDS011;53422;49.296;6.900;2024-03-17T06:13:13;9.85;;;3.55;;
66567;SDS011;53422;49.296;6.900;2024-03-17T06:15:40;7.53;;;3.83;;
66567;SDS011;53422;49.296;6.900;2024-03-17T06:18:06;7.60;;;3.35;;
66567;SDS011;53422;49.296;6.900;2024-03-17T06:20:39;8.52;;;3.53;;
66567;SDS011;53422;49.296;6.900;2024-03-17T06:23:07;8.23;;;4.20;;
66567;SDS011;53422;49.296;6.900;2024-03-17T06:25:37;6.68;;;3.67;;
66567;SDS011;53422;49.296;6.900;2024-03-17T06:28:11;6.03;;;3.42;;
66567;SDS011;53422;49.296;6.900;2024-03-17T06:30:42;8.10;;;3.72;;
66567;SDS011;53422;49.296;6.900;2024-03-17T06:33:11;8.55;;;4.47;;
66567;SDS011;53422;49.296;6.900;2024-03-17T06:35:37;8.93;;;4.15;;
66567;SDS011;53422;49.296;6.900;2024-03-17T06:38:04;9.25;;;3.83;;
66567;SDS011;53422;49.296;6.900;2024-03-17T06:40:30;8.00;;;3.58;;
66567;SDS011;53422;49.296;6.900;2024-03-17T06:42:56;8.50;;;4.05;;
66567;SDS011;53422;49.296;6.900;2024-03-17T06:45:22;7.18;;;3.05;;
66567;SDS011;53422;49.296;6.900;2024-03-17T06:47:49;6.63;;;3.38;;
66567;SDS011;53422;49.296;6.900;2024-03-17T06:50:15;6.75;;;3.17;;
66567;SDS011;53422;49.296;6.900;2024-03-17T06:52:40;7.18;;;3.53;;
66567;SDS011;53422;49.296;6.900;2024-03-17T06:55:07;6.47;;;3.58;;
66567;SDS011;53422;49.296;6.900;2024-03-17T06:57:33;8.95;;;4.28;;
66567;SDS011;53422;49.296;6.900;2024-03-17T07:00:02;8.02;;;3.70;;
66567;SDS011;53422;49.296;6.900;2024-03-17T07:02:31;9.20;;;4.22;;
66567;SDS011;53422;49.296;6.900;2024-03-17T07:04:57;10.77;;;5.10;;
66567;SDS011;53422;49.296;6.900;2024-03-17T07:07:23;15.93;;;5.97;;
66567;SDS011;53422;49.296;6.900;2024-03-17T07:09:52;15.65;;;6.57;;
66567;SDS011;53422;49.296;6.900;2024-03-17T07:12:18;13.07;;;6.13;;
66567;SDS011;53422;49.296;6.900;2024-03-17T07:14:44;12.75;;;6.57;;
66567;SDS011;53422;49.296;6.900;2024-03-17T07:17:09;15.07;;;6.05;;
66567;SDS011;53422;49.296;6.900;2024-03-17T07:19:35;10.07;;;5.40;;
66567;SDS011;53422;49.296;6.900;2024-03-17T07:22:01;12.40;;;5.78;;
66567;SDS011;53422;49.296;6.900;2024-03-17T07:24:28;14.18;;;6.40;;
66567;SDS011;53422;49.296;6.900;2024-03-17T07:26:55;9.68;;;5.43;;
66567;SDS011;53422;49.296;6.900;2024-03-17T07:29:21;10.65;;;4.75;;
66567;SDS011;53422;49.296;6.900;2024-03-17T07:31:47;10.20;;;5.20;;
66567;SDS011;53422;49.296;6.900;2024-03-17T07:34:12;10.77;;;4.90;;
66567;SDS011;53422;49.296;6.900;2024-03-17T07:36:38;7.70;;;4.45;;
66567;SDS011;53422;49.296;6.900;2024-03-17T07:39:04;7.75;;;4.18;;
66567;SDS011;53422;49.296;6.900;2024-03-17T07:41:32;9.18;;;4.15;;
66567;SDS011;53422;49.296;6.900;2024-03-17T07:43:58;9.52;;;4.55;;
66567;SDS011;53422;49.296;6.900;2024-03-17T07:46:24;10.15;;;5.20;;
66567;SDS011;53422;49.296;6.900;2024-03-17T07:48:52;8.45;;;4.10;;
66567;SDS011;53422;49.296;6.900;2024-03-17T07:51:18;13.07;;;5.30;;
66567;SDS011;53422;49.296;6.900;2024-03-17T07:53:45;9.45;;;5.00;;
66567;SDS011;53422;49.296;6.900;2024-03-17T07:56:13;10.20;;;4.75;;
66567;SDS011;53422;49.296;6.900;2024-03-17T07:58:40;8.95;;;4.63;;
66567;SDS011;53422;49.296;6.900;2024-03-17T08:01:10;10.05;;;4.25;;
66567;SDS011;53422;49.296;6.900;2024-03-17T08:03:38;9.30;;;5.00;;
66567;SDS011;53422;49.296;6.900;2024-03-17T08:06:09;9.85;;;4.95;;
66567;SDS011;53422;49.296;6.900;2024-03-17T08:08:36;9.35;;;4.25;;
66567;SDS011;53422;49.296;6.900;2024-03-17T08:11:02;9.77;;;4.47;;
66567;SDS011;53422;49.296;6.900;2024-03-17T08:13:28;8.75;;;4.22;;
66567;SDS011;53422;49.296;6.900;2024-03-17T08:15:59;10.98;;;4.72;;
66567;SDS011;53422;49.296;6.900;2024-03-17T08:18:26;8.05;;;3.92;;
66567;SDS011;53422;49.296;6.900;2024-03-17T08:20:52;7.57;;;4.22;;
66567;SDS011;53422;49.296;6.900;2024-03-17T08:23:24;8.55;;;4.32;;
66567;SDS011;53422;49.296;6.900;2024-03-17T08:25:56;8.98;;;4.88;;
66567;SDS011;53422;49.296;6.900;2024-03-17T08:28:23;10.18;;;5.18;;
66567;SDS011;53422;49.296;6.900;2024-03-17T08:30:50;9.25;;;4.82;;
66567;SDS011;53422;49.296;6.900;2024-03-17T08:33:23;8.23;;;4.28;;
66567;SDS011;53422;49.296;6.900;2024-03-17T08:36:07;8.00;;;4.05;;
66567;SDS011;53422;49.296;6.900;2024-03-17T08:38:34;11.60;;;3.83;;
66567;SDS011;53422;49.296;6.900;2024-03-17T08:43:30;10.88;;;4.60;;
66567;SDS011;53422;49.296;6.900;2024-03-17T08:46:00;9.43;;;4.25;;
66567;SDS011;53422;49.296;6.900;2024-03-17T08:48:28;10.40;;;4.47;;
66567;SDS011;53422;49.296;6.900;2024-03-17T08:50:55;11.55;;;4.75;;
66567;SDS011;53422;49.296;6.900;2024-03-17T08:53:21;7.28;;;3.33;;
66567;SDS011;53422;49.296;6.900;2024-03-17T08:55:48;7.25;;;3.90;;
66567;SDS011;53422;49.296;6.900;2024-03-17T08:58:15;8.23;;;3.70;;
66567;SDS011;53422;49.296;6.900;2024-03-17T09:00:41;9.43;;;3.60;;
66567;SDS011;53422;49.296;6.900;2024-03-17T09:03:07;9.98;;;3.75;;
66567;SDS011;53422;49.296;6.900;2024-03-17T09:05:37;9.02;;;4.32;;
66567;SDS011;53422;49.296;6.900;2024-03-17T09:08:05;8.23;;;3.65;;
66567;SDS011;53422;49.296;6.900;2024-03-17T09:10:31;9.45;;;3.60;;
66567;SDS011;53422;49.296;6.900;2024-03-17T09:12:57;7.53;;;3.55;;
66567;SDS011;53422;49.296;6.900;2024-03-17T09:15:22;9.25;;;3.85;;
66567;SDS011;53422;49.296;6.900;2024-03-17T09:17:49;6.78;;;3.35;;
66567;SDS011;53422;49.296;6.900;2024-03-17T09:20:15;6.32;;;3.05;;
66567;SDS011;53422;49.296;6.900;2024-03-17T09:22:42;6.97;;;3.03;;
66567;SDS011;53422;49.296;6.900;2024-03-17T09:25:08;6.70;;;2.97;;
66567;SDS011;53422;49.296;6.900;2024-03-17T09:27:34;5.85;;;3.15;;
66567;SDS011;53422;49.296;6.900;2024-03-17T09:30:06;6.63;;;3.33;;
66567;SDS011;53422;49.296;6.900;2024-03-17T09:32:35;7.95;;;3.25;;
66567;SDS011;53422;49.296;6.900;2024-03-17T09:35:01;6.78;;;2.65;;
66567;SDS011;53422;49.296;6.900;2024-03-17T09:37:28;6.38;;;2.95;;
66567;SDS011;53422;49.296;6.900;2024-03-17T09:39:56;7.75;;;3.25;;
66567;SDS011;53422;49.296;6.900;2024-03-17T09:42:23;9.95;;;3.53;;
66567;SDS011;53422;49.296;6.900;2024-03-17T09:44:49;6.82;;;3.47;;
66567;SDS011;53422;49.296;6.900;2024-03-17T09:47:18;7.22;;;3.40;;
66567;SDS011;53422;49.296;6.900;2024-03-17T09:49:48;5.95;;;3.17;;
66567;SDS011;53422;49.296;6.900;2024-03-17T09:52:21;7.15;;;3.00;;
66567;SDS011;53422;49.296;6.900;2024-03-17T09:57:49;8.50;;;3.40;;
66567;SDS011;53422;49.296;6.900;2024-03-17T10:00:15;8.52;;;3.85;;
66567;SDS011;53422;49.296;6.900;2024-03-17T10:02:44;7.47;;;3.60;;
66567;SDS011;53422;49.296;6.900;2024-03-17T10:05:18;7.30;;;3.42;;
66567;SDS011;53422;49.296;6.900;2024-03-17T10:07:46;5.30;;;2.70;;
66567;SDS011;53422;49.296;6.900;2024-03-17T10:10:12;6.78;;;3.50;;
66567;SDS011;53422;49.296;6.900;2024-03-17T10:12:38;7.53;;;3.03;;
66567;SDS011;53422;49.296;6.900;2024-03-17T10:15:03;6.47;;;2.92;;
66567;SDS011;53422;49.296;6.900;2024-03-17T10:17:32;7.15;;;3.38;;
66567;SDS011;53422;49.296;6.900;2024-03-17T10:20:10;6.53;;;3.30;;
66567;SDS011;53422;49.296;6.900;2024-03-17T10:22:57;7.47;;;3.05;;
66567;SDS011;53422;49.296;6.900;2024-03-17T10:25:26;6.03;;;2.90;;
66567;SDS011;53422;49.296;6.900;2024-03-17T10:27:52;7.78;;;3.40;;
66567;SDS011;53422;49.296;6.900;2024-03-17T10:30:19;6.93;;;3.03;;
66567;SDS011;53422;49.296;6.900;2024-03-17T10:32:51;5.43;;;3.05;;
66567;SDS011;53422;49.296;6.900;2024-03-17T10:35:27;6.07;;;3.20;;
66567;SDS011;53422;49.296;6.900;2024-03-17T10:38:03;7.20;;;3.20;;
66567;SDS011;53422;49.296;6.900;2024-03-17T10:40:31;5.15;;;2.83;;
66567;SDS011;53422;49.296;6.900;2024-03-17T10:43:04;6.32;;;3.40;;
66567;SDS011;53422;49.296;6.900;2024-03-17T10:45:31;5.45;;;2.72;;
66567;SDS011;53422;49.296;6.900;2024-03-17T10:48:02;7.15;;;3.08;;
66567;SDS011;53422;49.296;6.900;2024-03-17T10:50:32;5.72;;;3.22;;
66567;SDS011;53422;49.296;6.900;2024-03-17T10:53:03;8.75;;;3.17;;
66567;SDS011;53422;49.296;6.900;2024-03-17T10:55:42;5.82;;;2.83;;
66567;SDS011;53422;49.296;6.900;2024-03-17T10:58:28;7.53;;;2.92;;
66567;SDS011;53422;49.296;6.900;2024-03-17T11:01:02;5.93;;;2.85;;
66567;SDS011;53422;49.296;6.900;2024-03-17T11:03:30;5.68;;;2.90;;
66567;SDS011;53422;49.296;6.900;2024-03-17T11:05:56;5.53;;;2.67;;
66567;SDS011;53422;49.296;6.900;2024-03-17T11:08:23;6.43;;;2.60;;
66567;SDS011;53422;49.296;6.900;2024-03-17T11:10:51;4.97;;;2.47;;
66567;SDS011;53422;49.296;6.900;2024-03-17T11:13:30;7.18;;;3.03;;
66567;SDS011;53422;49.296;6.900;2024-03-17T11:15:57;5.15;;;2.65;;
66567;SDS011;53422;49.296;6.900;2024-03-17T11:23:56;7.18;;;2.90;;
66567;SDS011;53422;49.296;6.900;2024-03-17T11:26:27;5.15;;;2.35;;
66567;SDS011;53422;49.296;6.900;2024-03-17T11:28:54;4.70;;;2.45;;
66567;SDS011;53422;49.296;6.900;2024-03-17T11:33:59;4.43;;;2.25;;
66567;SDS011;53422;49.296;6.900;2024-03-17T11:41:41;6.75;;;2.67;;
66567;SDS011;53422;49.296;6.900;2024-03-17T11:49:22;5.05;;;2.60;;
66567;SDS011;53422;49.296;6.900;2024-03-17T11:51:49;4.25;;;2.00;;
66567;SDS011;53422;49.296;6.900;2024-03-17T11:54:16;9.25;;;4.63;;
66567;SDS011;53422;49.296;6.900;2024-03-17T11:56:53;10.73;;;5.10;;
66567;SDS011;53422;49.296;6.900;2024-03-17T11:59:20;9.52;;;4.55;;
66567;SDS011;53422;49.296;6.900;2024-03-17T12:01:47;4.50;;;2.42;;
66567;SDS011;53422;49.296;6.900;2024-03-17T12:04:14;9.23;;;4.80;;
66567;SDS011;53422;49.296;6.900;2024-03-17T12:06:47;4.75;;;2.50;;
66567;SDS011;53422;49.296;6.900;2024-03-17T12:09:21;7.22;;;3.13;;
66567;SDS011;53422;49.296;6.900;2024-03-17T12:12:01;6.60;;;3.30;;
66567;SDS011;53422;49.296;6.900;2024-03-17T12:14:37;6.28;;;3.08;;
66567;SDS011;53422;49.296;6.900;2024-03-17T12:17:04;5.68;;;2.55;;
66567;SDS011;53422;49.296;6.900;2024-03-17T12:19:35;6.03;;;2.92;;
66567;SDS011;53422;49.296;6.900;2024-03-17T12:22:03;6.53;;;2.88;;
66567;SDS011;53422;49.296;6.900;2024-03-17T12:24:31;4.25;;;2.05;;
66567;SDS011;53422;49.296;6.900;2024-03-17T12:27:01;4.15;;;2.08;;
66567;SDS011;53422;49.296;6.900;2024-03-17T12:32:01;6.32;;;3.47;;
66567;SDS011;53422;49.296;6.900;2024-03-17T12:34:31;4.18;;;2.20;;
66567;SDS011;53422;49.296;6.900;2024-03-17T12:36:58;6.85;;;2.40;;
66567;SDS011;53422;49.296;6.900;2024-03-17T12:44:29;4.45;;;2.45;;
66567;SDS011;53422;49.296;6.900;2024-03-17T12:46:56;6.07;;;2.70;;
66567;SDS011;53422;49.296;6.900;2024-03-17T12:49:23;4.95;;;2.35;;
66567;SDS011;53422;49.296;6.900;2024-03-17T12:51:50;4.72;;;1.90;;
66567;SDS011;53422;49.296;6.900;2024-03-17T12:54:19;4.40;;;2.17;;
66567;SDS011;53422;49.296;6.900;2024-03-17T12:56:45;5.97;;;2.35;;
66567;SDS011;53422;49.296;6.900;2024-03-17T12:59:36;2.88;;;1.30;;
66567;SDS011;53422;49.296;6.900;2024-03-17T13:02:24;5.55;;;2.10;;
66567;SDS011;53422;49.296;6.900;2024-03-17T13:07:31;3.13;;;1.55;;
66567;SDS011;53422;49.296;6.900;2024-03-17T13:09:57;3.45;;;1.92;;
66567;SDS011;53422;49.296;6.900;2024-03-17T13:12:23;3.67;;;1.77;;
66567;SDS011;53422;49.296;6.900;2024-03-17T13:14:49;5.80;;;2.17;;
66567;SDS011;53422;49.296;6.900;2024-03-17T13:17:15;3.33;;;1.67;;
66567;SDS011;53422;49.296;6.900;2024-03-17T13:19:46;4.45;;;2.05;;
66567;SDS011;53422;49.296;6.900;2024-03-17T13:22:12;3.70;;;1.67;;
66567;SDS011;53422;49.296;6.900;2024-03-17T13:24:39;3.47;;;1.70;;
66567;SDS011;53422;49.296;6.900;2024-03-17T13:27:05;3.38;;;1.60;;
66567;SDS011;53422;49.296;6.900;2024-03-17T13:29:36;4.93;;;1.55;;
66567;SDS011;53422;49.296;6.900;2024-03-17T13:32:02;5.60;;;1.65;;
66567;SDS011;53422;49.296;6.900;2024-03-17T13:34:28;6.32;;;1.88;;
66567;SDS011;53422;49.296;6.900;2024-03-17T13:36:54;4.18;;;1.52;;
66567;SDS011;53422;49.296;6.900;2024-03-17T13:39:20;4.85;;;1.98;;
66567;SDS011;53422;49.296;6.900;2024-03-17T13:41:47;5.18;;;1.73;;
66567;SDS011;53422;49.296;6.900;2024-03-17T13:44:14;3.00;;;1.48;;
66567;SDS011;53422;49.296;6.900;2024-03-17T13:46:40;3.53;;;1.70;;
66567;SDS011;53422;49.296;6.900;2024-03-17T13:49:09;3.15;;;1.60;;
66567;SDS011;53422;49.296;6.900;2024-03-17T13:51:35;3.65;;;1.35;;
66567;SDS011;53422;49.296;6.900;2024-03-17T13:54:01;3.78;;;1.63;;
66567;SDS011;53422;49.296;6.900;2024-03-17T13:56:27;2.78;;;1.45;;
66567;SDS011;53422;49.296;6.900;2024-03-17T13:58:53;2.20;;;1.42;;
66567;SDS011;53422;49.296;6.900;2024-03-17T14:01:19;4.60;;;1.30;;
66567;SDS011;53422;49.296;6.900;2024-03-17T14:03:45;3.63;;;1.38;;
66567;SDS011;53422;49.296;6.900;2024-03-17T14:06:11;2.65;;;1.40;;
66567;SDS011;53422;49.296;6.900;2024-03-17T14:08:37;2.92;;;1.20;;
66567;SDS011;53422;49.296;6.900;2024-03-17T14:11:03;3.88;;;1.33;;
66567;SDS011;53422;49.296;6.900;2024-03-17T14:13:31;3.03;;;1.20;;
66567;SDS011;53422;49.296;6.900;2024-03-17T14:16:00;3.13;;;1.15;;
66567;SDS011;53422;49.296;6.900;2024-03-17T14:18:26;2.25;;;1.02;;
66567;SDS011;53422;49.296;6.900;2024-03-17T14:20:52;3.15;;;1.70;;
66567;SDS011;53422;49.296;6.900;2024-03-17T14:23:17;3.63;;;1.80;;
66567;SDS011;53422;49.296;6.900;2024-03-17T14:25:43;4.05;;;1.75;;
66567;SDS011;53422;49.296;6.900;2024-03-17T14:28:09;2.63;;;1.20;;
66567;SDS011;53422;49.296;6.900;2024-03-17T14:30:34;2.30;;;1.00;;
66567;SDS011;53422;49.296;6.900;2024-03-17T14:33:00;4.13;;;1.10;;
66567;SDS011;53422;49.296;6.900;2024-03-17T14:35:26;4.70;;;2.13;;
66567;SDS011;53422;49.296;6.900;2024-03-17T14:37:52;5.93;;;2.88;;
66567;SDS011;53422;49.296;6.900;2024-03-17T14:40:19;4.07;;;2.20;;
66567;SDS011;53422;49.296;6.900;2024-03-17T14:42:49;4.57;;;1.90;;
66567;SDS011;53422;49.296;6.900;2024-03-17T14:45:16;4.10;;;1.90;;
66567;SDS011;53422;49.296;6.900;2024-03-17T14:47:45;9.63;;;4.53;;
66567;SDS011;53422;49.296;6.900;2024-03-17T14:50:12;5.40;;;2.25;;
66567;SDS011;53422;49.296;6.900;2024-03-17T14:52:38;2.67;;;1.42;;
66567;SDS011;53422;49.296;6.900;2024-03-17T14:55:07;3.00;;;1.38;;
66567;SDS011;53422;49.296;6.900;2024-03-17T14:57:37;5.07;;;1.63;;
66567;SDS011;53422;49.296;6.900;2024-03-17T15:00:06;2.55;;;1.27;;
66567;SDS011;53422;49.296;6.900;2024-03-17T15:02:44;1.60;;;0.95;;
66567;SDS011;53422;49.296;6.900;2024-03-17T15:05:12;2.58;;;0.73;;
66567;SDS011;53422;49.296;6.900;2024-03-17T15:07:39;1.25;;;0.80;;
66567;SDS011;53422;49.296;6.900;2024-03-17T15:10:06;1.92;;;0.85;;
66567;SDS011;53422;49.296;6.900;2024-03-17T15:12:32;4.57;;;1.73;;
66567;SDS011;53422;49.296;6.900;2024-03-17T15:14:58;4.15;;;1.70;;
66567;SDS011;53422;49.296;6.900;2024-03-17T15:17:24;3.72;;;1.45;;
66567;SDS011;53422;49.296;6.900;2024-03-17T15:19:50;4.93;;;2.00;;
66567;SDS011;53422;49.296;6.900;2024-03-17T15:22:16;19.58;;;5.82;;